Time;durP1;ratioP1;P1;durP2;ratioP2;P2;SDS_P1;SDS_P2;PMS_P1;PMS_P2;Temp;Humidity;BMP_temperature;BMP_pressure;BME280_temperature;BME280_humidity;BME280_pressure;Samples;Min_cycle;Max_cycle;Signal;HPM_P1;HPM_P2
2021/04/13 00:01:10;;;;;;;0.50;0.00;;;1.60;99.90;;;;;;5057704;28;20043;-74
2021/04/13 00:03:58;;;;;;;1.95;0.00;;;1.60;99.90;;;;;;5108713;23;20039;-74
2021/04/13 00:06:26;;;;;;;1.80;0.00;;;1.50;99.90;;;;;;5103005;28;20046;-74
2021/04/13 00:08:57;;;;;;;4.32;0.00;;;1.60;99.90;;;;;;5116133;28;20024;-76
2021/04/13 00:11:25;;;;;;;2.03;0.00;;;1.50;99.90;;;;;;5115900;28;20153;-74
2021/04/13 00:13:53;;;;;;;2.05;0.00;;;1.50;99.90;;;;;;5115900;28;20028;-75
2021/04/13 00:16:21;;;;;;;1.98;0.00;;;1.50;99.90;;;;;;5097741;28;20038;-75
2021/04/13 00:18:49;;;;;;;1.58;0.40;;;1.50;99.90;;;;;;5097949;28;20110;-75
2021/04/13 00:21:36;;;;;;;2.78;0.00;;;1.40;99.90;;;;;;5097311;28;20073;-76
2021/04/13 00:24:07;;;;;;;4.10;0.00;;;1.40;99.90;;;;;;5097516;28;20388;-74
2021/04/13 00:26:33;;;;;;;1.70;0.20;;;1.40;99.90;;;;;;5115674;28;20023;-75
2021/04/13 00:29:01;;;;;;;5.82;0.10;;;1.30;99.90;;;;;;5115830;28;20034;-76
2021/04/13 00:31:42;;;;;;;0.25;0.00;;;1.30;99.90;;;;;;5097235;28;20035;-75
2021/04/13 00:34:10;;;;;;;2.53;0.00;;;1.30;99.90;;;;;;5097502;28;20080;-76
2021/04/13 00:36:36;;;;;;;1.63;0.13;;;1.30;99.90;;;;;;5096392;28;20027;-74
2021/04/13 00:39:31;;;;;;;3.42;0.28;;;1.30;99.90;;;;;;5116678;28;20088;-75
2021/04/13 00:42:01;;;;;;;3.03;0.00;;;1.30;99.90;;;;;;5115841;28;20050;-74
2021/04/13 00:44:27;;;;;;;;;;;1.30;99.90;;;;;;5085909;28;20366;-74
2021/04/13 00:46:58;;;;;;;0.85;0.10;;;1.30;99.90;;;;;;5094973;28;19904;-74
2021/04/13 00:49:26;;;;;;;2.35;0.55;;;1.30;99.90;;;;;;5093871;28;20028;-74
2021/04/13 00:51:56;;;;;;;2.30;0.00;;;1.30;99.90;;;;;;5096165;22;20044;-75
2021/04/13 00:54:28;;;;;;;1.92;0.00;;;1.20;99.90;;;;;;5056048;28;20024;-75
2021/04/13 00:56:54;;;;;;;3.03;0.35;;;1.20;99.90;;;;;;5062640;28;20040;-76
2021/04/13 00:59:22;;;;;;;2.90;0.28;;;1.10;99.90;;;;;;5094619;28;20067;-75
2021/04/13 01:02:00;;;;;;;2.17;0.00;;;1.10;99.90;;;;;;5081569;28;20017;-76
2021/04/13 01:04:34;;;;;;;4.30;0.93;;;1.10;99.90;;;;;;5092483;28;20100;-74
2021/04/13 01:07:10;;;;;;;5.68;0.10;;;1.10;99.90;;;;;;5079231;23;20043;-74
2021/04/13 01:09:44;;;;;;;5.53;0.20;;;1.00;99.90;;;;;;5077185;28;20081;-74
2021/04/13 01:12:36;;;;;;;3.63;0.38;;;1.00;99.90;;;;;;5094748;28;20381;-75
2021/04/13 01:15:05;;;;;;;0.57;0.00;;;0.90;99.90;;;;;;5112084;28;20047;-75
2021/04/13 01:17:31;;;;;;;5.80;0.00;;;0.90;99.90;;;;;;5094488;28;20020;-76
2021/04/13 01:20:32;;;;;;;3.05;0.43;;;0.80;99.90;;;;;;5114741;28;20058;-74
2021/04/13 01:25:31;;;;;;;3.72;0.28;;;0.80;99.90;;;;;;5114719;28;20038;-75
2021/04/13 01:28:00;;;;;;;1.75;0.00;;;0.70;99.90;;;;;;5114423;28;20042;-76
2021/04/13 01:33:44;;;;;;;3.17;0.00;;;0.80;99.90;;;;;;5072699;28;20041;-74
2021/04/13 01:36:21;;;;;;;2.88;0.00;;;0.80;99.90;;;;;;5074062;28;20086;-75
2021/04/13 01:39:00;;;;;;;7.60;0.40;;;0.80;99.90;;;;;;5075581;28;20031;-74
2021/04/13 01:42:04;;;;;;;2.40;0.00;;;0.70;99.90;;;;;;5074149;28;20016;-74
2021/04/13 01:44:39;;;;;;;2.42;0.40;;;0.70;99.90;;;;;;5073523;28;20124;-76
2021/04/13 01:47:07;;;;;;;3.53;0.52;;;0.70;99.90;;;;;;5073619;28;20052;-74
2021/04/13 01:49:40;;;;;;;3.25;0.00;;;0.70;99.90;;;;;;5074215;28;20020;-74
2021/04/13 01:52:11;;;;;;;2.58;0.00;;;0.70;99.90;;;;;;5074195;28;20028;-74
2021/04/13 01:54:38;;;;;;;3.22;0.15;;;0.60;99.90;;;;;;5073919;28;20038;-74
2021/04/13 01:57:18;;;;;;;5.32;0.43;;;0.60;99.90;;;;;;5062253;28;20021;-75
2021/04/13 02:00:15;;;;;;;1.73;0.15;;;0.60;99.90;;;;;;5055715;28;20392;-76
2021/04/13 02:03:06;;;;;;;4.97;0.00;;;0.60;99.90;;;;;;5049839;28;20123;-74
2021/04/13 02:05:36;;;;;;;2.67;0.00;;;0.60;99.90;;;;;;5073677;28;20470;-74
2021/04/13 02:08:14;;;;;;;6.47;0.15;;;0.60;99.90;;;;;;5055343;28;20028;-75
2021/04/13 02:10:53;;;;;;;4.28;0.00;;;0.60;99.90;;;;;;5112077;22;20052;-75
2021/04/13 02:13:27;;;;;;;1.90;0.15;;;0.60;99.90;;;;;;5051806;28;20032;-77
2021/04/13 02:16:23;;;;;;;0.70;0.00;;;0.60;99.90;;;;;;5053437;28;20025;-74
2021/04/13 02:18:52;;;;;;;6.10;0.00;;;0.60;99.90;;;;;;5118407;22;20047;-75
2021/04/13 02:21:29;;;;;;;2.97;0.10;;;0.60;99.90;;;;;;5086739;22;20082;-74
2021/04/13 02:23:58;;;;;;;3.35;0.10;;;0.60;99.90;;;;;;5055532;28;20029;-75
2021/04/13 02:26:25;;;;;;;3.50;0.00;;;1.40;99.90;;;;;;5055712;28;20060;-75
2021/04/13 02:28:52;;;;;;;2.40;0.00;;;0.50;99.90;;;;;;5086859;22;20075;-76
2021/04/13 02:34:20;;;;;;;0.90;0.17;;;0.50;99.90;;;;;;5074001;28;20569;-76
2021/04/13 02:36:52;;;;;;;3.30;0.00;;;0.50;99.90;;;;;;5055697;28;20064;-75
2021/04/13 02:39:20;;;;;;;7.10;0.20;;;0.40;99.90;;;;;;5076396;28;20538;-76
2021/04/13 02:41:54;;;;;;;4.18;0.20;;;0.50;99.90;;;;;;5093196;28;20020;-76
2021/04/13 02:44:23;;;;;;;2.65;0.57;;;0.50;99.90;;;;;;5082767;28;20103;-74
2021/04/13 02:46:52;;;;;;;5.95;0.15;;;0.40;99.90;;;;;;5073255;28;20032;-74
2021/04/13 02:49:19;;;;;;;;;;;0.40;99.90;;;;;;5055719;28;20028;-75
2021/04/13 02:51:59;;;;;;;8.70;0.20;;;0.40;99.90;;;;;;5054890;28;19904;-75
2021/04/13 02:54:31;;;;;;;6.22;0.20;;;0.40;99.90;;;;;;5065020;22;20056;-75
2021/04/13 02:57:00;;;;;;;2.63;0.00;;;0.30;99.90;;;;;;5097658;23;20055;-75
2021/04/13 02:59:30;;;;;;;10.07;0.08;;;0.70;99.90;;;;;;5074439;28;20542;-76
2021/04/13 03:02:05;;;;;;;3.05;0.03;;;0.30;99.90;;;;;;5096854;28;20016;-74
2021/04/13 03:04:48;;;;;;;7.57;0.80;;;0.30;99.90;;;;;;5065725;28;20020;-75
2021/04/13 03:07:22;;;;;;;5.00;0.00;;;0.30;99.90;;;;;;5097846;28;20035;-75
2021/04/13 03:10:06;;;;;;;4.80;0.35;;;0.20;99.90;;;;;;5110188;28;20036;-74
2021/04/13 03:12:36;;;;;;;3.63;0.30;;;0.20;99.90;;;;;;5088010;28;20466;-75
2021/04/13 03:15:04;;;;;;;3.35;0.10;;;0.20;99.90;;;;;;5078271;28;20029;-75
2021/04/13 03:17:31;;;;;;;3.73;0.53;;;0.20;99.90;;;;;;5078406;28;20107;-75
2021/04/13 03:20:05;;;;;;;2.63;0.05;;;0.20;99.90;;;;;;5097008;28;20027;-75
2021/04/13 03:22:36;;;;;;;3.35;0.10;;;0.20;99.90;;;;;;5096631;28;20124;-75
2021/04/13 03:25:04;;;;;;;1.55;0.00;;;0.20;99.90;;;;;;5078337;28;20086;-75
2021/04/13 03:27:30;;;;;;;1.98;0.10;;;0.20;99.90;;;;;;5096508;28;20028;-75
2021/04/13 03:30:21;;;;;;;3.60;0.10;;;0.20;99.90;;;;;;5096518;28;20024;-75
2021/04/13 03:32:58;;;;;;;4.13;0.45;;;0.20;99.90;;;;;;5078224;28;20491;-75
2021/04/13 03:35:25;;;;;;;7.55;0.03;;;0.20;99.90;;;;;;5096663;28;20042;-75
2021/04/13 03:37:53;;;;;;;5.95;0.10;;;0.10;99.90;;;;;;5096042;28;20020;-75
2021/04/13 03:40:22;;;;;;;5.43;0.00;;;0.20;99.90;;;;;;5078176;28;20062;-75
2021/04/13 03:42:58;;;;;;;3.95;0.00;;;0.10;99.90;;;;;;5096218;28;20024;-75
2021/04/13 03:45:26;;;;;;;3.13;0.00;;;0.10;99.90;;;;;;5096375;28;20020;-76
2021/04/13 03:47:52;;;;;;;6.97;0.45;;;0.10;99.90;;;;;;5095965;28;20020;-74
2021/04/13 03:50:23;;;;;;;0.05;0.00;;;0.10;99.90;;;;;;5078447;28;20058;-76
2021/04/13 03:53:00;;;;;;;2.13;0.00;;;0.10;99.90;;;;;;5096807;28;20047;-77
2021/04/13 03:55:26;;;;;;;1.45;0.10;;;0.10;99.90;;;;;;5096529;28;20028;-74
2021/04/13 03:57:51;;;;;;;3.88;0.35;;;0.10;99.90;;;;;;5095928;28;20408;-76
2021/04/13 04:00:21;;;;;;;4.60;0.05;;;0.00;99.90;;;;;;5078052;28;20020;-75
2021/04/13 04:02:48;;;;;;;2.35;0.00;;;0.00;99.90;;;;;;5095987;28;20144;-76
2021/04/13 04:05:22;;;;;;;2.55;0.00;;;0.00;99.90;;;;;;5061726;28;20024;-75
2021/04/13 04:08:00;;;;;;;5.40;0.10;;;-0.10;99.90;;;;;;5095729;28;20032;-75
2021/04/13 04:10:29;;;;;;;1.92;0.10;;;-0.10;99.90;;;;;;5077663;28;20020;-74
2021/04/13 04:12:58;;;;;;;5.05;0.00;;;-0.10;99.90;;;;;;5077904;28;20032;-76
2021/04/13 04:15:37;;;;;;;5.45;0.30;;;-0.20;99.90;;;;;;5077774;28;20497;-76
2021/04/13 04:18:10;;;;;;;8.85;0.32;;;-0.20;99.90;;;;;;5095567;28;20036;-76
2021/04/13 04:20:36;;;;;;;4.07;0.30;;;-0.20;99.90;;;;;;5095867;28;20457;-75
2021/04/13 04:23:02;;;;;;;2.88;0.00;;;-0.20;99.90;;;;;;5095867;28;20016;-76
2021/04/13 04:25:39;;;;;;;5.13;0.73;;;-0.10;99.90;;;;;;5077772;28;20054;-75
2021/04/13 04:28:27;;;;;;;1.42;0.20;;;-0.10;99.90;;;;;;5096505;28;20593;-75
2021/04/13 04:30:53;;;;;;;4.00;0.25;;;-0.10;99.90;;;;;;5095679;28;20430;-74
2021/04/13 04:33:35;;;;;;;3.30;0.22;;;-0.20;99.90;;;;;;5107653;28;20115;-74
2021/04/13 04:36:01;;;;;;;4.22;0.50;;;-0.10;99.90;;;;;;5097708;28;20077;-75
2021/04/13 04:38:32;;;;;;;6.30;0.30;;;-0.10;99.90;;;;;;5097659;28;20361;-76
2021/04/13 04:41:07;;;;;;;0.95;0.10;;;-0.20;99.90;;;;;;5115987;28;20012;-76
2021/04/13 04:43:43;;;;;;;1.27;0.00;;;-0.10;99.90;;;;;;5116042;28;20019;-76
2021/04/13 04:46:09;;;;;;;8.15;0.00;;;-0.10;99.90;;;;;;5096314;28;20024;-74
2021/04/13 04:48:39;;;;;;;2.05;0.10;;;0.40;99.90;;;;;;5095514;28;20039;-75
2021/04/13 04:51:11;;;;;;;3.60;0.32;;;-0.10;99.90;;;;;;5095385;28;20028;-76
2021/04/13 04:53:38;;;;;;;5.15;0.10;;;-0.20;99.90;;;;;;5095441;28;20481;-76
2021/04/13 04:56:07;;;;;;;5.68;0.00;;;-0.20;99.90;;;;;;5077500;28;20020;-74
2021/04/13 04:58:32;;;;;;;4.13;0.47;;;-0.20;99.90;;;;;;5099831;28;20168;-75
2021/04/13 05:00:58;;;;;;;4.32;0.50;;;-0.20;99.90;;;;;;5097073;28;20486;-75
2021/04/13 05:03:26;;;;;;;3.95;0.15;;;-0.20;99.90;;;;;;5115111;28;20031;-75
2021/04/13 05:05:52;;;;;;;1.83;0.00;;;-0.10;99.90;;;;;;5096749;28;20484;-76
2021/04/13 05:08:19;;;;;;;4.78;0.38;;;-0.20;99.90;;;;;;5114947;28;20027;-75
2021/04/13 05:10:45;;;;;;;1.42;0.10;;;-0.10;99.90;;;;;;5109086;22;20480;-76
2021/04/13 05:13:11;;;;;;;6.80;0.40;;;-0.20;99.90;;;;;;5076805;28;20028;-75
2021/04/13 05:15:37;;;;;;;3.38;0.10;;;-0.10;99.90;;;;;;5107690;22;20101;-76
2021/04/13 05:18:03;;;;;;;2.67;0.10;;;-0.10;99.90;;;;;;5107245;22;20074;-76
2021/04/13 05:20:29;;;;;;;5.18;0.00;;;0.00;99.90;;;;;;5094582;28;20389;-75
2021/04/13 05:22:55;;;;;;;3.63;0.20;;;0.00;99.90;;;;;;5094049;28;20012;-75
2021/04/13 05:25:21;;;;;;;1.70;0.10;;;0.10;99.90;;;;;;5075756;28;20322;-75
2021/04/13 05:27:47;;;;;;;2.85;0.10;;;0.20;99.90;;;;;;5089771;28;20020;-75
2021/04/13 05:30:14;;;;;;;5.07;0.80;;;0.20;99.90;;;;;;5114034;28;20365;-75
2021/04/13 05:32:40;;;;;;;10.88;0.95;;;0.20;99.90;;;;;;5114484;28;20020;-74
2021/04/13 05:35:07;;;;;;;90.80;6.90;;;0.30;99.90;;;;;;5114304;28;20515;-76
2021/04/13 05:37:33;;;;;;;63.40;4.20;;;0.30;99.90;;;;;;5084803;28;20024;-74
2021/04/13 05:40:01;;;;;;;17.95;0.30;;;0.40;99.90;;;;;;5103200;28;20020;-75
2021/04/13 05:42:31;;;;;;;4.80;0.10;;;0.40;99.90;;;;;;5092455;28;20385;-76
2021/04/13 05:44:58;;;;;;;7.07;0.50;;;0.50;99.90;;;;;;5094604;28;20035;-77
2021/04/13 05:47:30;;;;;;;16.35;0.95;;;0.60;99.90;;;;;;5097325;28;20387;-76
2021/04/13 05:49:56;;;;;;;10.80;0.57;;;0.70;99.90;;;;;;5094052;28;20019;-76
2021/04/13 05:52:22;;;;;;;8.98;0.28;;;0.90;99.90;;;;;;5113496;28;20077;-76
2021/04/13 05:54:48;;;;;;;6.20;0.47;;;1.00;99.90;;;;;;5100377;28;20016;-77
2021/04/13 05:57:18;;;;;;;12.85;0.57;;;1.20;99.90;;;;;;5112980;22;20040;-75
2021/04/13 05:59:44;;;;;;;8.48;0.50;;;1.30;99.90;;;;;;5074478;28;20036;-77
2021/04/13 06:02:16;;;;;;;6.38;0.43;;;1.50;99.90;;;;;;5101684;22;20048;-77
2021/04/13 06:04:42;;;;;;;2.70;0.30;;;1.60;99.90;;;;;;5075298;28;20469;-77
2021/04/13 06:07:07;;;;;;;6.50;0.22;;;1.70;99.90;;;;;;5095794;28;20027;-76
2021/04/13 06:09:33;;;;;;;6.32;1.05;;;1.80;99.90;;;;;;5095049;28;20042;-75
2021/04/13 06:11:59;;;;;;;10.93;0.45;;;1.90;99.90;;;;;;5113927;28;20495;-75
2021/04/13 06:14:27;;;;;;;4.00;0.40;;;2.00;99.90;;;;;;5113469;28;20107;-75
2021/04/13 06:16:52;;;;;;;7.47;0.08;;;2.20;99.90;;;;;;5092375;28;20028;-74
2021/04/13 06:19:18;;;;;;;7.40;0.93;;;2.30;99.90;;;;;;5075119;28;20503;-75
2021/04/13 06:21:45;;;;;;;4.90;0.10;;;2.40;99.90;;;;;;5093514;28;20488;-75
2021/04/13 06:24:11;;;;;;;4.32;0.10;;;2.50;99.90;;;;;;5075341;28;20031;-75
2021/04/13 06:26:37;;;;;;;5.10;0.45;;;2.50;99.90;;;;;;5075209;28;20024;-77
2021/04/13 06:29:03;;;;;;;7.20;0.20;;;2.60;99.90;;;;;;5137913;22;20515;-75
2021/04/13 06:31:29;;;;;;;4.75;0.30;;;2.80;99.90;;;;;;5073188;28;20037;-75
2021/04/13 06:33:54;;;;;;;8.40;0.50;;;3.00;99.90;;;;;;5073053;28;20048;-75
2021/04/13 06:36:23;;;;;;;3.83;0.47;;;3.20;99.90;;;;;;5075905;28;20028;-76
2021/04/13 06:38:50;;;;;;;8.50;0.00;;;3.40;99.90;;;;;;5077363;28;20054;-74
2021/04/13 06:41:48;;;;;;;1.73;0.17;;;3.60;99.90;;;;;;5058863;28;20115;-75
2021/04/13 06:44:35;;;;;;;5.35;0.20;;;3.90;99.90;;;;;;5058713;28;20025;-75
2021/04/13 06:47:26;;;;;;;4.85;0.50;;;4.20;99.90;;;;;;5058692;28;20028;-76
2021/04/13 06:50:34;;;;;;;7.70;0.43;;;4.50;99.90;;;;;;5058555;28;20035;-76
2021/04/13 06:53:16;;;;;;;9.50;0.35;;;4.70;99.90;;;;;;5075646;28;20119;-76
2021/04/13 06:55:58;;;;;;;4.80;0.03;;;4.90;99.90;;;;;;5058513;28;20028;-76
2021/04/13 06:58:51;;;;;;;3.67;0.20;;;5.00;99.90;;;;;;5076948;28;20021;-76
2021/04/13 07:01:31;;;;;;;6.40;0.00;;;5.00;99.90;;;;;;5058346;28;20021;-76
2021/04/13 07:04:13;;;;;;;5.28;0.08;;;5.00;99.90;;;;;;5076315;28;20103;-76
2021/04/13 07:06:46;;;;;;;4.85;0.10;;;5.20;99.90;;;;;;5076372;28;20471;-75
2021/04/13 07:09:28;;;;;;;0.25;0.00;;;5.40;99.90;;;;;;5076294;28;20028;-76
2021/04/13 07:12:04;;;;;;;6.38;0.40;;;5.60;99.90;;;;;;5059282;28;20039;-77
2021/04/13 07:14:58;;;;;;;2.67;0.30;;;5.80;99.90;;;;;;5078132;28;20032;-77
2021/04/13 07:17:36;;;;;;;6.80;0.63;;;5.80;99.90;;;;;;5076534;28;20024;-77
2021/04/13 07:20:12;;;;;;;4.20;0.00;;;6.00;99.90;;;;;;5077358;28;20021;-77
2021/04/13 07:22:41;;;;;;;1.60;0.00;;;6.10;99.90;;;;;;5059634;28;20115;-77
2021/04/13 07:25:13;;;;;;;6.30;0.10;;;6.20;99.90;;;;;;5076418;28;20059;-74
2021/04/13 07:28:02;;;;;;;3.55;0.55;;;6.20;99.90;;;;;;5058192;28;20443;-76
2021/04/13 07:30:39;;;;;;;4.63;0.32;;;6.30;99.90;;;;;;5058083;28;20123;-75
2021/04/13 07:33:10;;;;;;;2.83;0.00;;;6.30;99.90;;;;;;5075994;28;20423;-75
2021/04/13 07:35:39;;;;;;;2.22;0.00;;;6.40;99.90;;;;;;5071944;22;20427;-79
2021/04/13 07:38:23;;;;;;;2.08;0.00;;;6.60;99.90;;;;;;5075030;28;20032;-75
2021/04/13 07:40:57;;;;;;;4.82;0.35;;;6.70;99.90;;;;;;5076344;28;20098;-76
2021/04/13 07:43:34;;;;;;;6.28;0.65;;;6.70;99.90;;;;;;5076256;28;20096;-76
2021/04/13 07:46:15;;;;;;;4.60;0.13;;;6.80;99.90;;;;;;5075980;28;20024;-75
2021/04/13 07:48:50;;;;;;;3.45;0.22;;;6.90;99.90;;;;;;5075968;28;20025;-75
2021/04/13 07:51:18;;;;;;;4.55;0.10;;;7.00;99.90;;;;;;5058049;28;20036;-75
2021/04/13 07:54:06;;;;;;;3.45;0.00;;;7.20;99.90;;;;;;5057252;28;20066;-75
2021/04/13 07:56:49;;;;;;;2.50;0.37;;;7.30;98.60;;;;;;5057282;28;20523;-75
2021/04/13 07:59:39;;;;;;;0.73;0.00;;;7.30;97.30;;;;;;5057508;28;20528;-75
2021/04/13 08:02:05;;;;;;;7.03;0.03;;;7.40;96.90;;;;;;5075887;28;20485;-74
2021/04/13 08:04:31;;;;;;;4.80;0.00;;;7.30;94.50;;;;;;5075573;28;20023;-75
2021/04/13 08:07:23;;;;;;;1.48;0.00;;;7.30;94.20;;;;;;5075649;28;20025;-75
2021/04/13 08:09:54;;;;;;;2.55;0.03;;;7.30;94.10;;;;;;5076002;28;20078;-75
2021/04/13 08:12:28;;;;;;;5.60;0.15;;;7.40;93.50;;;;;;5075328;28;20036;-75
2021/04/13 08:14:56;;;;;;;3.75;0.32;;;7.60;93.90;;;;;;5057501;28;20016;-75
2021/04/13 08:17:27;;;;;;;1.98;0.10;;;7.70;92.00;;;;;;5057059;28;20067;-75
2021/04/13 08:20:05;;;;;;;1.83;0.00;;;7.80;91.00;;;;;;5075221;28;20419;-75
2021/04/13 08:23:11;;;;;;;2.22;0.10;;;7.90;91.00;;;;;;5057102;28;20052;-75
2021/04/13 08:25:47;;;;;;;3.25;0.00;;;7.90;89.40;;;;;;4997199;28;20529;-76
2021/04/13 08:28:21;;;;;;;5.57;0.60;;;8.10;91.20;;;;;;5013538;28;20033;-76
2021/04/13 08:34:12;;;;;;;2.67;0.08;;;8.10;83.90;;;;;;5075852;28;20385;-76
2021/04/13 08:37:13;;;;;;;0.22;0.00;;;7.90;85.50;;;;;;5073571;28;20047;-77
2021/04/13 08:39:58;;;;;;;2.22;0.10;;;8.10;84.90;;;;;;5074819;28;20013;-76
2021/04/13 08:42:47;;;;;;;1.63;0.10;;;8.40;85.70;;;;;;5075187;28;20020;-76
2021/04/13 08:45:30;;;;;;;2.08;0.00;;;8.30;81.20;;;;;;5074881;28;20025;-77
2021/04/13 08:48:11;;;;;;;5.10;0.38;;;8.20;79.70;;;;;;5074405;28;20036;-76
2021/04/13 08:50:41;;;;;;;2.70;0.35;;;8.30;81.40;;;;;;5056900;28;20031;-77
2021/04/13 08:53:24;;;;;;;2.40;0.00;;;8.30;80.90;;;;;;5056577;28;20435;-77
2021/04/13 08:56:01;;;;;;;3.22;0.00;;;8.20;83.20;;;;;;5056521;28;20115;-77
2021/04/13 08:58:40;;;;;;;3.40;0.35;;;8.40;81.30;;;;;;5073967;28;20558;-77
2021/04/13 09:01:37;;;;;;;1.85;0.00;;;8.60;80.40;;;;;;5056439;28;20111;-78
2021/04/13 09:04:12;;;;;;;4.30;0.00;;;8.80;74.70;;;;;;5056881;28;20115;-76
2021/04/13 09:06:58;;;;;;;3.13;0.00;;;8.70;72.50;;;;;;5074153;28;20418;-77
2021/04/13 09:09:51;;;;;;;3.53;0.00;;;8.60;70.90;;;;;;5073820;28;20481;-75
2021/04/13 09:12:29;;;;;;;0.85;0.00;;;8.70;74.80;;;;;;5056101;28;20079;-74
2021/04/13 09:15:19;;;;;;;9.32;0.15;;;8.80;72.00;;;;;;5056558;28;20024;-74
2021/04/13 09:17:57;;;;;;;2.55;0.22;;;9.00;67.30;;;;;;5055994;28;20025;-74
2021/04/13 09:20:39;;;;;;;1.25;0.00;;;9.30;63.90;;;;;;5091692;22;20040;-75
2021/04/13 09:23:26;;;;;;;0.73;0.05;;;9.30;68.40;;;;;;5076037;28;20420;-79
2021/04/13 09:25:54;;;;;;;1.23;0.00;;;9.50;67.30;;;;;;5076548;28;20044;-75
2021/04/13 09:28:22;;;;;;;0.20;0.00;;;11.10;66.30;;;;;;5077842;28;20024;-76
2021/04/13 09:31:03;;;;;;;0.95;0.10;;;9.80;62.30;;;;;;5095357;28;20027;-79
2021/04/13 09:33:39;;;;;;;0.32;0.00;;;9.80;64.10;;;;;;5108329;22;20040;-79
2021/04/13 09:36:10;;;;;;;2.13;0.00;;;9.90;62.60;;;;;;5077157;28;20024;-76
2021/04/13 09:39:03;;;;;;;1.52;0.03;;;9.70;64.10;;;;;;5056475;28;20405;-75
2021/04/13 09:41:55;;;;;;;2.78;0.10;;;9.70;65.00;;;;;;5057436;28;20087;-75
2021/04/13 09:44:46;;;;;;;3.10;0.00;;;9.70;65.90;;;;;;5075326;28;20460;-75
2021/04/13 09:52:55;;;;;;;1.55;0.00;;;10.00;62.30;;;;;;5073128;28;20048;-74
2021/04/13 09:55:32;;;;;;;0.00;0.00;;;10.00;63.40;;;;;;5042552;28;20028;-75
2021/04/13 09:58:14;;;;;;;1.88;0.20;;;9.80;63.10;;;;;;5056659;28;20029;-76
2021/04/13 10:00:55;;;;;;;2.00;0.00;;;9.80;60.10;;;;;;5056425;28;20028;-76
2021/04/13 10:03:33;;;;;;;0.30;0.00;;;9.90;60.20;;;;;;5056947;28;20021;-75
2021/04/13 10:06:00;;;;;;;1.17;0.10;;;10.00;61.70;;;;;;5056798;28;20109;-75
2021/04/13 10:08:34;;;;;;;2.53;0.00;;;10.20;59.40;;;;;;5057423;28;20028;-74
2021/04/13 10:11:10;;;;;;;1.70;0.10;;;10.30;58.90;;;;;;5060807;28;20409;-77
2021/04/13 10:14:15;;;;;;;0.50;0.10;;;10.60;59.70;;;;;;5096201;22;20040;-80
2021/04/13 10:17:16;;;;;;;5.20;0.00;;;10.80;59.50;;;;;;5080777;28;20173;-75
2021/04/13 10:20:25;;;;;;;0.55;0.00;;;10.90;59.80;;;;;;5030513;28;20388;-74
2021/04/13 10:23:11;;;;;;;1.98;0.03;;;10.60;56.80;;;;;;4997492;28;20027;-74
2021/04/13 10:25:56;;;;;;;4.38;0.00;;;10.30;57.20;;;;;;5087319;22;20052;-74
2021/04/13 10:28:55;;;;;;;2.13;0.30;;;10.40;58.50;;;;;;5098798;28;20473;-74
2021/04/13 10:32:09;;;;;;;1.45;0.00;;;10.30;59.90;;;;;;5080623;28;20123;-74
2021/04/13 10:34:38;;;;;;;2.10;0.10;;;10.60;57.70;;;;;;5085440;28;20036;-75
2021/04/13 10:37:21;;;;;;;3.92;0.00;;;10.80;57.10;;;;;;5079563;28;20476;-74
2021/04/13 10:40:30;;;;;;;1.50;0.08;;;11.00;53.00;;;;;;5080504;28;20114;-75
2021/04/13 10:43:18;;;;;;;4.85;0.25;;;11.20;54.30;;;;;;5080222;28;20046;-74
2021/04/13 10:46:21;;;;;;;1.10;0.00;;;11.30;56.30;;;;;;5098805;28;20425;-76
2021/04/13 10:48:55;;;;;;;1.85;0.00;;;11.60;55.30;;;;;;5098598;28;20150;-74
2021/04/13 10:51:57;;;;;;;1.05;0.00;;;12.00;54.50;;;;;;5098469;28;20055;-74
2021/04/13 10:54:57;;;;;;;1.17;0.00;;;12.20;54.40;;;;;;5112679;22;20737;-76
2021/04/13 10:58:08;;;;;;;0.60;0.00;;;12.40;53.80;;;;;;5080264;28;20081;-74
2021/04/13 11:01:03;;;;;;;1.13;0.25;;;12.30;49.70;;;;;;5098717;28;20107;-75
2021/04/13 11:03:53;;;;;;;1.73;0.00;;;12.20;48.80;;;;;;5098167;28;20044;-75
2021/04/13 11:07:10;;;;;;;1.50;0.00;;;12.00;51.50;;;;;;5079539;28;20028;-75
2021/04/13 11:10:08;;;;;;;0.45;0.00;;;11.90;53.00;;;;;;5097216;28;20028;-75
2021/04/13 11:12:34;;;;;;;1.65;0.00;;;11.80;52.30;;;;;;5058467;28;20131;-76
2021/04/13 11:15:30;;;;;;;1.17;0.10;;;11.90;52.20;;;;;;5097454;28;20058;-76
2021/04/13 11:18:00;;;;;;;2.45;0.20;;;12.10;51.10;;;;;;5096767;28;20031;-75
2021/04/13 11:20:40;;;;;;;0.80;0.00;;;12.40;52.50;;;;;;5077358;28;20024;-75
2021/04/13 11:23:38;;;;;;;1.45;0.00;;;12.50;49.00;;;;;;5096654;28;20032;-74
2021/04/13 11:26:28;;;;;;;0.90;0.00;;;12.40;48.20;;;;;;5097602;28;20436;-75
2021/04/13 11:29:18;;;;;;;0.30;0.03;;;11.90;47.90;;;;;;5078422;28;20024;-75
2021/04/13 11:32:21;;;;;;;1.02;0.25;;;11.50;50.70;;;;;;5097023;28;20031;-76
2021/04/13 11:35:07;;;;;;;1.45;0.00;;;11.30;53.20;;;;;;5078950;28;20423;-76
2021/04/13 11:37:46;;;;;;;0.98;0.00;;;11.00;52.20;;;;;;5077823;28;20115;-76
2021/04/13 11:40:49;;;;;;;0.00;0.00;;;10.80;52.20;;;;;;5096301;28;20104;-76
2021/04/13 11:43:19;;;;;;;1.65;0.00;;;10.70;53.60;;;;;;5077810;28;20020;-76
2021/04/13 11:46:07;;;;;;;0.15;0.00;;;11.00;53.10;;;;;;5077679;28;20129;-76
2021/04/13 11:48:56;;;;;;;0.82;0.00;;;11.30;49.00;;;;;;5078777;28;20101;-74
2021/04/13 11:51:37;;;;;;;0.60;0.00;;;11.30;51.50;;;;;;5045896;28;20504;-77
2021/04/13 11:57:10;;;;;;;0.38;0.00;;;10.80;50.70;;;;;;5055121;28;20045;-76
2021/04/13 11:59:36;;;;;;;1.55;0.00;;;10.70;47.90;;;;;;5056196;28;20025;-76
2021/04/13 12:02:28;;;;;;;1.30;0.00;;;11.00;50.40;;;;;;5055955;28;20493;-75
2021/04/13 12:04:56;;;;;;;1.13;0.10;;;11.40;51.60;;;;;;5038330;28;20052;-75
2021/04/13 12:07:47;;;;;;;0.93;0.00;;;11.80;49.50;;;;;;5056246;28;20021;-75
2021/04/13 12:10:31;;;;;;;1.73;0.30;;;11.70;48.20;;;;;;5056194;28;20032;-75
2021/04/13 12:13:03;;;;;;;1.85;0.38;;;11.70;49.10;;;;;;5038096;28;20035;-76
2021/04/13 12:15:48;;;;;;;2.67;0.45;;;11.90;50.40;;;;;;5055554;28;20116;-74
2021/04/13 12:18:35;;;;;;;4.03;0.65;;;12.20;47.80;;;;;;5055006;28;20029;-75
2021/04/13 12:21:22;;;;;;;1.38;0.35;;;12.90;48.90;;;;;;5037821;28;20496;-75
2021/04/13 12:23:55;;;;;;;3.63;0.20;;;13.00;47.50;;;;;;5037297;28;20020;-76
2021/04/13 12:26:37;;;;;;;2.85;0.32;;;12.70;47.10;;;;;;5037573;28;20023;-76
2021/04/13 12:29:29;;;;;;;1.95;0.15;;;12.40;47.40;;;;;;5056033;28;20382;-75
2021/04/13 12:32:16;;;;;;;1.10;0.10;;;12.10;46.60;;;;;;5067840;23;20096;-74
2021/04/13 12:34:59;;;;;;;1.60;0.00;;;12.00;48.20;;;;;;5035958;28;20032;-75
2021/04/13 12:37:45;;;;;;;1.95;0.00;;;11.60;48.70;;;;;;5035478;28;20026;-75
2021/04/13 12:40:19;;;;;;;6.38;0.00;;;11.50;48.80;;;;;;5035856;28;20435;-76
2021/04/13 12:42:50;;;;;;;0.25;0.00;;;12.10;50.80;;;;;;5017323;28;20045;-75
2021/04/13 12:45:18;;;;;;;1.65;0.00;;;12.50;48.50;;;;;;5035002;28;20049;-76
2021/04/13 12:47:45;;;;;;;0.98;0.20;;;12.80;48.20;;;;;;5017145;28;20030;-74
2021/04/13 12:50:32;;;;;;;2.22;0.38;;;12.80;47.40;;;;;;5034990;28;20021;-75
2021/04/13 12:52:59;;;;;;;1.38;0.20;;;12.60;46.20;;;;;;5035875;28;20032;-75
2021/04/13 12:55:29;;;;;;;0.35;0.00;;;12.40;43.60;;;;;;5035038;28;20113;-76
2021/04/13 12:57:59;;;;;;;2.35;0.15;;;12.10;46.70;;;;;;5036264;28;20371;-74
2021/04/13 13:00:32;;;;;;;1.10;0.00;;;11.90;48.60;;;;;;5017689;28;20049;-78
2021/04/13 13:06:31;;;;;;;1.33;0.00;;;10.80;52.50;;;;;;5035308;28;20379;-75
2021/04/13 13:09:20;;;;;;;0.22;0.00;;;10.20;56.10;;;;;;5034447;28;20022;-75
2021/04/13 13:11:56;;;;;;;0.77;0.05;;;10.00;59.10;;;;;;5034414;28;20104;-76
2021/04/13 13:14:23;;;;;;;1.35;0.28;;;9.90;58.00;;;;;;5017145;28;20017;-75
2021/04/13 13:16:55;;;;;;;1.83;0.05;;;10.10;57.50;;;;;;5033667;28;20041;-75
2021/04/13 13:19:47;;;;;;;0.43;0.00;;;10.20;57.10;;;;;;5015768;28;20047;-75
2021/04/13 13:22:25;;;;;;;1.25;0.00;;;10.30;55.80;;;;;;5033966;28;20025;-76
2021/04/13 13:24:52;;;;;;;0.38;0.00;;;10.40;50.80;;;;;;5033660;28;20017;-76
2021/04/13 13:27:32;;;;;;;1.55;0.00;;;11.00;50.20;;;;;;5033469;28;20112;-76
2021/04/13 13:30:03;;;;;;;3.15;0.10;;;11.80;49.20;;;;;;5015785;28;20091;-74
2021/04/13 13:32:29;;;;;;;1.77;0.00;;;12.50;49.00;;;;;;5033375;28;20068;-74
2021/04/13 13:34:58;;;;;;;0.38;0.10;;;12.70;44.70;;;;;;5033561;28;20463;-76
2021/04/13 13:37:36;;;;;;;0.45;0.00;;;12.40;44.80;;;;;;5016415;28;20104;-74
2021/04/13 13:40:20;;;;;;;0.47;0.00;;;12.00;41.40;;;;;;5034928;28;20026;-78
2021/04/13 13:42:48;;;;;;;0.35;0.00;;;11.50;42.90;;;;;;5035306;28;20475;-75
2021/04/13 13:45:31;;;;;;;3.10;0.00;;;11.10;42.70;;;;;;5034715;28;20032;-79
2021/04/13 13:47:57;;;;;;;1.75;0.00;;;10.90;46.00;;;;;;5033596;28;20071;-74
2021/04/13 13:50:36;;;;;;;1.42;0.08;;;10.60;46.00;;;;;;5016233;28;20076;-75
2021/04/13 13:53:02;;;;;;;3.00;0.25;;;10.60;46.30;;;;;;5033904;28;20059;-75
2021/04/13 13:55:35;;;;;;;0.93;0.00;;;10.70;48.70;;;;;;5035349;28;20423;-76
2021/04/13 13:58:10;;;;;;;0.40;0.00;;;10.70;45.00;;;;;;5033643;28;20132;-74
2021/04/13 14:00:41;;;;;;;1.40;0.20;;;10.90;46.80;;;;;;5034434;28;20482;-74
2021/04/13 14:03:19;;;;;;;2.38;0.45;;;11.20;49.20;;;;;;5034610;28;20100;-74
2021/04/13 14:06:05;;;;;;;0.98;0.00;;;11.60;47.70;;;;;;5017278;28;20071;-75